createdAt,value
2023-03-18T00:00:49.726Z,37.03
2023-03-18T00:03:17.719Z,37.11
2023-03-18T00:05:45.715Z,37.22
2023-03-18T00:08:13.178Z,37.59
2023-03-18T00:10:40.884Z,37.41
2023-03-18T00:13:08.403Z,37.73
2023-03-18T00:15:36.077Z,37.64
2023-03-18T00:18:03.757Z,37.65
2023-03-18T00:20:39.129Z,37.64
2023-03-18T00:23:08.680Z,37.96
2023-03-18T00:25:37.894Z,37.96
2023-03-18T00:28:07.191Z,38.02
2023-03-18T00:30:39.066Z,38.38
2023-03-18T00:33:07.355Z,38.23
2023-03-18T00:35:36.503Z,38.17
2023-03-18T00:38:07.653Z,38.61
2023-03-18T00:40:53.559Z,38.52
2023-03-18T00:43:23.235Z,39.01
2023-03-18T00:45:51.255Z,38.60
2023-03-18T00:48:18.769Z,38.37
2023-03-18T00:50:46.928Z,38.45
2023-03-18T00:53:15.303Z,38.53
2023-03-18T00:55:44.184Z,38.46
2023-03-18T00:58:12.857Z,38.93
2023-03-18T01:00:41.468Z,38.91
2023-03-18T01:03:09.098Z,38.85
2023-03-18T01:05:36.727Z,39.08
2023-03-18T01:08:05.123Z,38.80
2023-03-18T01:10:33.303Z,39.01
2023-03-18T01:13:01.644Z,38.89
2023-03-18T01:15:29.768Z,38.96
2023-03-18T01:17:58.507Z,38.61
2023-03-18T01:20:27.081Z,38.92
2023-03-18T01:22:57.078Z,39.04
2023-03-18T01:25:25.038Z,39.23
2023-03-18T01:27:54.863Z,39.36
2023-03-18T01:30:23.936Z,39.54
2023-03-18T01:32:54.096Z,39.28
2023-03-18T01:35:22.241Z,39.34
2023-03-18T01:37:51.707Z,39.46
2023-03-18T01:40:21.249Z,39.39
2023-03-18T01:42:57.704Z,39.85
2023-03-18T01:45:30.454Z,39.60
2023-03-18T01:48:01.258Z,39.48
2023-03-18T01:50:33.572Z,39.75
2023-03-18T01:53:08.386Z,39.58
2023-03-18T01:55:38.000Z,39.64
2023-03-18T01:58:24.696Z,39.77
2023-03-18T02:01:19.303Z,40.15
2023-03-18T02:03:50.514Z,39.32
2023-03-18T02:06:19.386Z,39.57
2023-03-18T02:08:58.398Z,39.99
2023-03-18T02:11:27.185Z,39.41
2023-03-18T02:14:00.746Z,40.09
2023-03-18T02:16:35.448Z,40.05
2023-03-18T02:19:12.379Z,40.45
2023-03-18T02:21:45.519Z,40.01
2023-03-18T02:24:25.348Z,40.63
2023-03-18T02:27:26.753Z,41.05
2023-03-18T02:29:58.853Z,40.42
2023-03-18T02:32:31.400Z,40.15
2023-03-18T02:35:03.689Z,40.53
2023-03-18T02:37:32.555Z,40.24
2023-03-18T02:40:15.465Z,41.27
2023-03-18T02:42:44.428Z,40.84
2023-03-18T02:45:38.492Z,41.27
2023-03-18T02:48:15.343Z,40.83
2023-03-18T02:50:43.228Z,40.76
2023-03-18T02:53:13.227Z,41.07
2023-03-18T02:55:42.519Z,40.82
2023-03-18T02:58:10.466Z,41.05
2023-03-18T03:00:38.649Z,40.98
2023-03-18T03:03:06.571Z,40.89
2023-03-18T03:05:35.074Z,41.19
2023-03-18T03:08:03.100Z,40.96
2023-03-18T03:10:34.022Z,40.71
2023-03-18T03:13:02.487Z,40.72
2023-03-18T03:15:30.948Z,40.89
2023-03-18T03:18:00.354Z,40.27
2023-03-18T03:20:28.837Z,40.29
2023-03-18T03:22:58.235Z,40.53
2023-03-18T03:25:27.602Z,40.49
2023-03-18T03:27:56.484Z,40.88
2023-03-18T03:30:26.322Z,40.81
2023-03-18T03:32:53.915Z,40.65
2023-03-18T03:35:22.432Z,40.48
2023-03-18T03:37:50.638Z,40.48
2023-03-18T03:40:19.160Z,40.52
2023-03-18T03:42:49.317Z,40.72
2023-03-18T03:45:19.578Z,40.53
2023-03-18T03:47:47.889Z,40.80
2023-03-18T03:50:18.408Z,40.65
2023-03-18T03:52:47.134Z,40.54
2023-03-18T03:55:17.543Z,41.02
2023-03-18T03:57:46.316Z,40.85
2023-03-18T04:00:18.822Z,41.12
2023-03-18T04:02:50.945Z,41.16
2023-03-18T04:05:22.706Z,40.87
2023-03-18T04:07:51.610Z,40.59
2023-03-18T04:10:23.084Z,40.76
2023-03-18T04:12:51.038Z,40.96
2023-03-18T04:15:21.389Z,40.93
2023-03-18T04:17:51.311Z,40.92
2023-03-18T04:20:20.122Z,41.04
2023-03-18T04:22:48.235Z,40.79
2023-03-18T04:25:18.937Z,41.07
2023-03-18T04:27:47.313Z,41.08
2023-03-18T04:30:17.982Z,41.14
2023-03-18T04:33:01.537Z,40.93
2023-03-18T04:35:30.058Z,41.01
2023-03-18T04:37:57.829Z,40.84
2023-03-18T04:40:25.562Z,40.58
2023-03-18T04:42:53.297Z,40.20
2023-03-18T04:45:27.222Z,40.07
2023-03-18T04:47:58.526Z,39.69
2023-03-18T04:50:29.431Z,39.54
2023-03-18T04:52:57.291Z,39.33
2023-03-18T04:55:28.458Z,38.93
2023-03-18T04:57:56.974Z,38.82
2023-03-18T05:00:26.954Z,38.36
2023-03-18T05:03:04.813Z,38.09
2023-03-18T05:05:32.896Z,37.69
2023-03-18T05:08:00.715Z,37.68
2023-03-18T05:10:29.230Z,37.26
2023-03-18T05:12:56.765Z,37.69
2023-03-18T05:15:31.057Z,36.74
2023-03-18T05:18:00.114Z,36.52
2023-03-18T05:20:28.866Z,36.76
2023-03-18T05:22:56.687Z,35.95
2023-03-18T05:25:32.875Z,35.84
2023-03-18T05:28:01.366Z,35.69
2023-03-18T05:30:44.274Z,35.25
2023-03-18T05:33:15.505Z,35.00
2023-03-18T05:35:49.777Z,35.10
2023-03-18T05:38:20.716Z,34.80
2023-03-18T05:40:48.651Z,34.67
2023-03-18T05:43:21.887Z,34.21
2023-03-18T05:45:53.403Z,33.96
2023-03-18T05:48:27.187Z,34.30
2023-03-18T05:50:59.683Z,34.15
2023-03-18T05:53:32.128Z,33.99
2023-03-18T05:56:12.518Z,33.85
2023-03-18T05:58:40.375Z,33.71
2023-03-18T06:01:31.653Z,33.41
2023-03-18T06:04:01.180Z,33.07
2023-03-18T06:06:29.155Z,33.07
2023-03-18T06:08:56.824Z,32.63
2023-03-18T06:11:24.985Z,32.57
2023-03-18T06:13:54.575Z,32.19
2023-03-18T06:16:23.509Z,31.48
2023-03-18T06:18:53.847Z,31.02
2023-03-18T06:21:21.444Z,30.47
2023-03-18T06:23:49.864Z,30.48
2023-03-18T06:26:18.000Z,29.94
2023-03-18T06:28:48.318Z,29.55
2023-03-18T06:31:17.994Z,29.32
2023-03-18T06:33:46.386Z,29.01
2023-03-18T06:36:16.936Z,28.91
2023-03-18T06:38:48.981Z,28.35
2023-03-18T06:41:18.098Z,27.79
2023-03-18T06:44:06.656Z,27.49
2023-03-18T06:46:34.526Z,27.13
2023-03-18T06:49:03.904Z,26.59
2023-03-18T06:51:35.184Z,26.36
2023-03-18T06:54:03.241Z,25.85
2023-03-18T06:56:38.867Z,25.23
2023-03-18T06:59:17.709Z,24.86
2023-03-18T07:01:46.671Z,24.36
2023-03-18T07:04:17.521Z,24.09
2023-03-18T07:06:45.773Z,23.80
2023-03-18T07:09:15.520Z,23.45
2023-03-18T07:11:47.112Z,23.19
2023-03-18T07:14:20.528Z,22.69
2023-03-18T07:16:48.285Z,22.45
2023-03-18T07:19:17.947Z,21.96
2023-03-18T07:21:46.594Z,21.74
2023-03-18T07:24:14.416Z,20.84
2023-03-18T07:26:42.028Z,20.67
2023-03-18T07:29:10.770Z,19.99
2023-03-18T07:31:38.780Z,19.46
2023-03-18T07:34:06.636Z,18.69
2023-03-18T07:36:34.258Z,17.84
2023-03-18T07:39:02.166Z,17.27
2023-03-18T07:41:29.957Z,17.27
2023-03-18T07:43:57.534Z,16.88
2023-03-18T07:46:25.969Z,16.33
2023-03-18T07:48:53.817Z,16.14
2023-03-18T07:51:21.807Z,15.72
2023-03-18T07:53:51.795Z,15.54
2023-03-18T07:56:19.594Z,15.50
2023-03-18T07:58:48.044Z,15.14
2023-03-18T08:01:21.571Z,14.81
2023-03-18T08:03:49.582Z,14.92
2023-03-18T08:06:19.088Z,14.58
2023-03-18T08:08:47.231Z,14.41
2023-03-18T08:11:14.918Z,13.96
2023-03-18T08:13:42.982Z,13.40
2023-03-18T08:16:10.615Z,13.12
2023-03-18T08:18:38.222Z,12.78
2023-03-18T08:21:06.140Z,12.68
2023-03-18T08:23:33.714Z,12.66
2023-03-18T08:26:01.754Z,12.33
2023-03-18T08:28:29.753Z,12.41
2023-03-18T08:30:59.331Z,12.20
2023-03-18T08:33:28.204Z,11.89
2023-03-18T08:35:56.412Z,12.06
2023-03-18T08:38:25.238Z,11.91
2023-03-18T08:40:52.740Z,11.40
2023-03-18T08:43:22.977Z,11.07
2023-03-18T08:45:54.313Z,10.97
2023-03-18T08:48:23.108Z,10.85
2023-03-18T08:50:50.780Z,10.73
2023-03-18T08:53:19.544Z,10.51
2023-03-18T08:55:47.137Z,10.47
2023-03-18T08:58:14.917Z,10.28
2023-03-18T09:00:43.099Z,10.15
2023-03-18T09:03:11.252Z,10.18
2023-03-18T09:05:38.912Z,9.36
2023-03-18T09:08:06.760Z,8.98
2023-03-18T09:10:34.395Z,9.00
2023-03-18T09:13:02.116Z,8.67
2023-03-18T09:15:30.288Z,8.58
2023-03-18T09:18:11.089Z,8.50
2023-03-18T09:20:41.361Z,8.91
2023-03-18T09:23:10.072Z,8.58
2023-03-18T09:25:38.251Z,7.83
2023-03-18T09:28:06.025Z,7.51
2023-03-18T09:30:34.190Z,7.13
2023-03-18T09:33:02.192Z,7.34
2023-03-18T09:35:29.884Z,7.13
2023-03-18T09:37:57.546Z,7.13
2023-03-18T09:40:36.247Z,6.85
2023-03-18T09:43:32.549Z,6.86
2023-03-18T09:46:24.909Z,6.15
2023-03-18T09:49:15.147Z,6.31
2023-03-18T09:52:13.995Z,6.65
2023-03-18T09:54:45.141Z,6.19
2023-03-18T09:57:42.428Z,6.19
2023-03-18T10:00:26.128Z,6.28
2023-03-18T10:03:02.613Z,5.50
2023-03-18T10:05:41.478Z,5.90
2023-03-18T10:08:18.872Z,5.43
2023-03-18T10:10:47.750Z,5.80
2023-03-18T10:13:29.150Z,5.75
2023-03-18T10:16:04.591Z,5.33
2023-03-18T10:18:35.702Z,5.43
2023-03-18T10:21:21.691Z,5.53
2023-03-18T10:24:00.901Z,5.29
2023-03-18T10:26:35.035Z,5.23
2023-03-18T10:29:33.398Z,4.82
2023-03-18T10:32:22.483Z,5.32
2023-03-18T10:35:18.383Z,5.44
2023-03-18T10:37:57.994Z,5.29
2023-03-18T10:40:27.284Z,5.17
2023-03-18T10:42:56.555Z,5.01
2023-03-18T10:45:28.689Z,5.02
2023-03-18T10:48:03.289Z,4.90
2023-03-18T10:50:43.417Z,5.33
2023-03-18T10:53:19.923Z,5.21
2023-03-18T10:56:05.225Z,5.15
2023-03-18T10:58:33.721Z,5.06
2023-03-18T11:01:01.216Z,5.26
2023-03-18T11:03:47.653Z,5.11
2023-03-18T11:06:20.211Z,5.26
2023-03-18T11:08:49.677Z,5.23
2023-03-18T11:11:35.350Z,4.96
2023-03-18T11:14:05.249Z,5.04
2023-03-18T11:16:49.642Z,4.91
2023-03-18T11:19:32.340Z,4.76
2023-03-18T11:22:17.869Z,4.96
2023-03-18T11:24:45.586Z,4.56
2023-03-18T11:27:18.888Z,4.76
2023-03-18T11:29:59.156Z,4.78
2023-03-18T11:32:28.801Z,4.47
2023-03-18T11:34:58.621Z,4.95
2023-03-18T11:37:41.401Z,4.67
2023-03-18T11:40:15.075Z,4.91
2023-03-18T11:42:43.345Z,4.77
2023-03-18T11:45:36.683Z,4.59
2023-03-18T11:48:06.968Z,4.55
2023-03-18T11:50:54.446Z,4.72
2023-03-18T11:53:38.525Z,4.62
2023-03-18T11:56:45.381Z,4.64
2023-03-18T11:59:37.614Z,4.65
2023-03-18T12:02:42.845Z,4.62
2023-03-18T12:05:13.976Z,4.39
2023-03-18T12:07:51.533Z,4.56
2023-03-18T12:10:24.910Z,4.25
2023-03-18T12:13:11.906Z,4.09
2023-03-18T12:15:45.058Z,3.86
2023-03-18T12:18:21.912Z,4.02
2023-03-18T12:21:04.873Z,3.59
2023-03-18T12:23:44.667Z,3.89
2023-03-18T12:26:21.431Z,4.21
2023-03-18T12:28:54.995Z,3.80
2023-03-18T12:32:11.193Z,3.93
2023-03-18T12:34:47.726Z,4.20
2023-03-18T12:37:32.404Z,4.14
2023-03-18T12:40:34.548Z,4.07
2023-03-18T12:43:37.532Z,4.00
2023-03-18T12:46:20.717Z,4.09
2023-03-18T12:48:54.457Z,3.92
2023-03-18T12:51:28.577Z,3.88
2023-03-18T12:54:02.383Z,4.21
2023-03-18T12:56:31.301Z,4.79
2023-03-18T12:59:19.041Z,6.59
2023-03-18T13:02:05.704Z,7.75
2023-03-18T13:04:38.379Z,8.53
2023-03-18T13:07:43.213Z,10.25
2023-03-18T13:10:24.475Z,10.81
2023-03-18T13:12:56.880Z,11.46
2023-03-18T13:15:32.235Z,11.59
2023-03-18T13:18:21.491Z,12.12
2023-03-18T13:20:51.912Z,12.25
2023-03-18T13:23:38.503Z,12.61
2023-03-18T13:26:24.361Z,12.79
2023-03-18T13:29:01.025Z,13.25
2023-03-18T13:31:57.981Z,13.82
2023-03-18T13:35:01.822Z,13.81
2023-03-18T13:37:58.734Z,14.84
2023-03-18T13:40:52.959Z,14.75
2023-03-18T13:43:23.035Z,14.88
2023-03-18T13:45:55.368Z,15.17
2023-03-18T13:48:33.729Z,15.64
2023-03-18T13:51:20.538Z,15.22
2023-03-18T13:53:50.688Z,14.83
2023-03-18T13:56:48.016Z,15.66
2023-03-18T13:59:33.668Z,15.32
2023-03-18T14:02:55.191Z,15.63
2023-03-18T14:05:40.556Z,15.95
2023-03-18T14:08:39.219Z,16.82
2023-03-18T14:11:46.325Z,16.07
2023-03-18T14:14:57.020Z,16.62
2023-03-18T14:17:58.663Z,16.81
2023-03-18T14:20:36.248Z,16.74
2023-03-18T14:23:25.387Z,17.35
2023-03-18T14:26:08.696Z,18.14
2023-03-18T14:28:44.591Z,18.47
2023-03-18T14:31:32.720Z,17.76
2023-03-18T14:34:10.289Z,18.22
2023-03-18T14:36:46.861Z,17.47
2023-03-18T14:39:24.687Z,17.74
2023-03-18T14:41:57.110Z,18.01
2023-03-18T14:44:47.803Z,17.70
2023-03-18T14:47:39.515Z,18.14
2023-03-18T14:50:15.910Z,18.89
2023-03-18T14:52:51.163Z,17.91
2023-03-18T14:55:22.773Z,17.99
2023-03-18T14:57:51.890Z,17.81
2023-03-18T15:00:21.981Z,18.13
2023-03-18T15:03:00.647Z,17.94
2023-03-18T15:05:34.144Z,18.07
2023-03-18T15:08:03.112Z,18.21
2023-03-18T15:10:32.921Z,17.76
2023-03-18T15:13:13.144Z,18.27
2023-03-18T15:15:42.156Z,18.29
2023-03-18T15:18:24.732Z,17.86
2023-03-18T15:21:04.402Z,17.81
2023-03-18T15:23:36.013Z,17.62
2023-03-18T15:26:08.745Z,18.23
2023-03-18T15:28:37.448Z,17.44
2023-03-18T15:31:06.606Z,17.86
2023-03-18T15:33:37.371Z,17.77
2023-03-18T15:36:12.895Z,18.15
2023-03-18T15:38:48.398Z,18.04
2023-03-18T15:41:18.509Z,18.11
2023-03-18T15:43:49.399Z,18.01
2023-03-18T15:46:24.959Z,18.34
2023-03-18T15:48:58.408Z,18.59
2023-03-18T15:51:30.950Z,18.30
2023-03-18T15:54:04.563Z,18.42
2023-03-18T15:56:36.079Z,18.36
2023-03-18T15:59:09.302Z,18.40
2023-03-18T16:01:37.348Z,18.73
2023-03-18T16:04:08.471Z,18.76
2023-03-18T16:06:36.508Z,18.85
2023-03-18T16:09:15.682Z,19.06
2023-03-18T16:11:47.843Z,19.31
2023-03-18T16:14:21.699Z,19.07
2023-03-18T16:16:50.139Z,19.11
2023-03-18T16:19:28.164Z,19.60
2023-03-18T16:21:58.599Z,19.60
2023-03-18T16:24:26.428Z,19.34
2023-03-18T16:26:55.814Z,19.60
2023-03-18T16:29:29.399Z,19.97
2023-03-18T16:31:57.340Z,19.93
2023-03-18T16:34:25.257Z,20.40
2023-03-18T16:36:53.665Z,20.20
2023-03-18T16:39:27.502Z,20.40
2023-03-18T16:41:55.109Z,20.35
2023-03-18T16:44:23.735Z,20.69
2023-03-18T16:46:54.638Z,20.95
2023-03-18T16:49:27.198Z,20.92
2023-03-18T16:51:55.204Z,20.89
2023-03-18T16:54:25.825Z,21.29
2023-03-18T16:56:59.441Z,21.73
2023-03-18T16:59:37.009Z,22.00
2023-03-18T17:02:04.974Z,21.72
2023-03-18T17:04:35.990Z,21.88
2023-03-18T17:07:04.953Z,21.92
2023-03-18T17:09:32.850Z,21.43
2023-03-18T17:12:04.626Z,21.80
2023-03-18T17:14:34.794Z,22.43
2023-03-18T17:17:11.787Z,22.52
2023-03-18T17:19:40.263Z,22.34
2023-03-18T17:22:21.907Z,23.13
2023-03-18T17:24:50.319Z,22.52
2023-03-18T17:27:20.731Z,22.89
2023-03-18T17:29:48.640Z,23.03
2023-03-18T17:32:16.845Z,23.39
2023-03-18T17:34:50.561Z,23.54
2023-03-18T17:37:18.942Z,23.38
2023-03-18T17:39:47.159Z,23.31
2023-03-18T17:42:32.006Z,24.42
2023-03-18T17:45:21.650Z,24.88
2023-03-18T17:47:50.342Z,24.08
2023-03-18T17:50:18.825Z,24.81
2023-03-18T17:52:49.033Z,24.95
2023-03-18T17:55:24.982Z,26.10
2023-03-18T17:57:52.567Z,25.37
2023-03-18T18:00:23.093Z,25.88
2023-03-18T18:02:54.887Z,25.95
2023-03-18T18:05:23.500Z,26.37
2023-03-18T18:07:51.696Z,26.52
2023-03-18T18:10:20.806Z,27.23
2023-03-18T18:12:49.835Z,27.22
2023-03-18T18:15:25.626Z,27.59
2023-03-18T18:17:54.447Z,27.80
2023-03-18T18:20:22.443Z,27.68
2023-03-18T18:22:54.610Z,28.13
2023-03-18T18:25:25.357Z,28.13
2023-03-18T18:27:54.867Z,28.24
2023-03-18T18:30:23.919Z,28.73
2023-03-18T18:32:52.673Z,28.75
2023-03-18T18:35:25.314Z,28.68
2023-03-18T18:37:53.191Z,28.94
2023-03-18T18:40:21.020Z,28.98
2023-03-18T18:42:48.687Z,29.09
2023-03-18T18:45:19.278Z,30.24
2023-03-18T18:47:47.397Z,29.39
2023-03-18T18:50:21.717Z,30.14
2023-03-18T18:52:49.367Z,29.75
2023-03-18T18:55:17.097Z,29.80
2023-03-18T18:57:44.853Z,29.95
2023-03-18T19:00:21.997Z,31.34
2023-03-18T19:02:58.372Z,31.16
2023-03-18T19:05:26.035Z,30.73
2023-03-18T19:07:53.798Z,30.78
2023-03-18T19:10:21.535Z,31.22
2023-03-18T19:12:49.006Z,31.00
2023-03-18T19:15:17.086Z,31.53
2023-03-18T19:17:45.392Z,31.45
2023-03-18T19:20:30.147Z,33.12
2023-03-18T19:22:57.913Z,31.93
2023-03-18T19:25:26.018Z,32.21
2023-03-18T19:27:54.957Z,32.63
2023-03-18T19:30:24.455Z,32.98
2023-03-18T19:32:52.409Z,32.30
2023-03-18T19:35:19.943Z,32.56
2023-03-18T19:37:48.202Z,32.92
2023-03-18T19:40:29.787Z,34.07
2023-03-18T19:42:57.583Z,32.61
2023-03-18T19:45:25.530Z,32.96
2023-03-18T19:47:53.524Z,32.99
2023-03-18T19:50:22.068Z,33.09
2023-03-18T19:52:49.865Z,33.28
2023-03-18T19:55:17.634Z,33.29
2023-03-18T19:57:48.571Z,33.56
2023-03-18T20:00:24.787Z,34.07
2023-03-18T20:02:53.745Z,33.22
2023-03-18T20:05:23.761Z,33.63
2023-03-18T20:07:52.291Z,33.74
2023-03-18T20:10:20.791Z,33.65
2023-03-18T20:12:52.796Z,33.88
2023-03-18T20:15:23.504Z,33.86
2023-03-18T20:17:52.381Z,33.50
2023-03-18T20:20:23.500Z,33.47
2023-03-18T20:23:03.596Z,34.32
2023-03-18T20:25:37.403Z,33.82
2023-03-18T20:28:06.154Z,33.54
2023-03-18T20:30:36.795Z,33.67
2023-03-18T20:33:05.185Z,33.51
2023-03-18T20:35:36.738Z,33.70
2023-03-18T20:38:12.818Z,33.64
2023-03-18T20:40:42.590Z,32.97
2023-03-18T20:43:17.970Z,33.86
2023-03-18T20:45:45.715Z,33.30
2023-03-18T20:48:13.441Z,33.29
2023-03-18T20:50:41.813Z,33.54
2023-03-18T20:53:16.338Z,34.28
2023-03-18T20:55:44.200Z,33.74
2023-03-18T20:58:16.172Z,34.06
2023-03-18T21:00:45.504Z,33.96
2023-03-18T21:03:24.675Z,34.19
2023-03-18T21:05:56.002Z,33.62
2023-03-18T21:08:24.832Z,33.79
2023-03-18T21:10:53.509Z,33.63
2023-03-18T21:13:39.287Z,34.08
2023-03-18T21:16:13.842Z,33.82
2023-03-18T21:18:46.141Z,33.51
2023-03-18T21:21:24.034Z,33.97
2023-03-18T21:23:53.997Z,33.54
2023-03-18T21:26:23.463Z,33.76
2023-03-18T21:28:52.620Z,33.69
2023-03-18T21:31:25.158Z,33.53
2023-03-18T21:33:53.584Z,33.82
2023-03-18T21:36:21.866Z,33.72
2023-03-18T21:38:49.519Z,33.68
2023-03-18T21:41:22.426Z,34.18
2023-03-18T21:43:50.627Z,33.55
2023-03-18T21:46:20.712Z,33.99
2023-03-18T21:48:48.608Z,33.82
2023-03-18T21:51:38.078Z,34.27
2023-03-18T21:54:06.374Z,34.07
2023-03-18T21:56:33.896Z,34.38
2023-03-18T21:59:01.454Z,34.24
2023-03-18T22:01:32.320Z,34.73
2023-03-18T22:04:00.031Z,34.41
2023-03-18T22:06:27.544Z,34.32
2023-03-18T22:08:57.500Z,34.61
2023-03-18T22:11:27.604Z,34.78
2023-03-18T22:13:55.585Z,34.77
2023-03-18T22:16:23.216Z,34.53
2023-03-18T22:18:51.365Z,34.67
2023-03-18T22:21:27.677Z,35.23
2023-03-18T22:23:58.146Z,34.79
2023-03-18T22:26:25.970Z,34.86
2023-03-18T22:28:53.696Z,35.16
2023-03-18T22:31:25.027Z,35.36
2023-03-18T22:33:53.522Z,34.92
2023-03-18T22:36:25.653Z,35.25
2023-03-18T22:38:53.211Z,35.21
2023-03-18T22:41:24.128Z,35.65
2023-03-18T22:43:51.657Z,35.36
2023-03-18T22:46:19.173Z,35.53
2023-03-18T22:48:46.862Z,35.66
2023-03-18T22:51:33.202Z,36.79
2023-03-18T22:54:00.847Z,36.01
2023-03-18T22:56:28.507Z,35.91
2023-03-18T22:58:56.116Z,35.94
2023-03-18T23:01:29.682Z,36.71
2023-03-18T23:03:57.300Z,36.60
2023-03-18T23:06:26.043Z,36.82
2023-03-18T23:08:53.589Z,36.48
2023-03-18T23:11:21.423Z,36.88
2023-03-18T23:13:50.184Z,36.93
2023-03-18T23:16:20.985Z,36.93
2023-03-18T23:18:49.240Z,36.89
2023-03-18T23:21:22.151Z,37.37
2023-03-18T23:23:50.440Z,36.89
2023-03-18T23:26:18.151Z,37.77
2023-03-18T23:28:46.101Z,37.06
2023-03-18T23:31:15.662Z,37.26
2023-03-18T23:33:43.475Z,37.70
2023-03-18T23:36:11.978Z,37.31
2023-03-18T23:38:39.734Z,37.63
2023-03-18T23:41:08.204Z,37.94
2023-03-18T23:43:38.308Z,37.98
2023-03-18T23:46:06.384Z,37.75
2023-03-18T23:48:33.894Z,37.69
2023-03-18T23:51:01.360Z,38.00
2023-03-18T23:53:28.900Z,38.28
2023-03-18T23:55:56.786Z,38.34
2023-03-18T23:58:24.316Z,38.16
